createdAt,value
2023-01-05T14:45:24.309Z,5.67
2023-01-05T14:50:40.803Z,5.50
2023-01-05T14:55:52.181Z,5.90
2023-01-05T15:00:58.193Z,5.80
2023-01-05T15:06:10.279Z,5.90
2023-01-05T15:11:30.808Z,5.77
2023-01-05T15:17:09.723Z,6.00
2023-01-05T15:22:47.230Z,7.03
2023-01-05T15:28:18.861Z,6.07
2023-01-05T15:33:42.684Z,6.10
2023-01-05T15:38:47.191Z,6.10
2023-01-05T15:43:50.037Z,6.23
2023-01-05T15:48:53.729Z,6.07
2023-01-05T15:53:58.727Z,5.97
2023-01-05T15:59:01.519Z,5.87
2023-01-05T16:04:09.343Z,4.97
2023-01-05T16:09:22.668Z,5.20
2023-01-05T16:14:39.829Z,6.07
2023-01-05T16:19:49.182Z,6.57
2023-01-05T16:25:06.588Z,6.73
2023-01-05T16:30:30.817Z,6.90
2023-01-05T16:35:40.322Z,6.70
2023-01-05T16:40:45.506Z,6.60
2023-01-05T16:45:50.322Z,5.93
2023-01-05T16:50:55.666Z,5.37
2023-01-05T16:56:00.717Z,6.40
2023-01-05T17:01:13.565Z,6.80
2023-01-05T17:06:27.438Z,5.73
2023-01-05T17:11:40.078Z,5.30
2023-01-05T17:16:44.307Z,6.30
2023-01-05T17:21:56.727Z,6.30
2023-01-05T17:26:59.641Z,6.60
2023-01-05T17:32:02.173Z,6.43
2023-01-05T17:37:04.426Z,6.20
2023-01-05T17:42:25.293Z,6.77
2023-01-05T17:47:27.462Z,6.60
2023-01-05T17:52:29.745Z,5.73
2023-01-05T17:57:31.914Z,5.23
2023-01-05T18:02:34.081Z,5.93
2023-01-05T18:07:37.121Z,5.97
2023-01-05T18:17:42.268Z,6.40
2023-01-05T18:38:51.152Z,6.07
2023-01-05T18:43:53.725Z,5.13
2023-01-05T18:48:56.073Z,4.77
2023-01-05T18:53:58.485Z,5.13
2023-01-05T18:59:01.109Z,5.47
2023-01-05T19:04:03.506Z,4.57
2023-01-05T19:09:08.874Z,5.50
2023-01-05T19:14:12.989Z,4.97
2023-01-05T19:19:15.918Z,4.67
2023-01-05T19:24:23.860Z,4.80
2023-01-05T19:29:26.156Z,4.33
2023-01-05T19:34:28.410Z,5.63
2023-01-05T19:39:30.601Z,5.80
2023-01-05T19:44:32.939Z,5.37
2023-01-05T19:49:35.292Z,6.17
2023-01-05T19:54:39.467Z,6.17
2023-01-05T19:59:43.646Z,6.30
2023-01-05T20:04:46.794Z,7.03
2023-01-05T20:09:50.752Z,6.87
2023-01-05T20:14:52.927Z,6.13
2023-01-05T20:19:55.167Z,7.07
2023-01-05T20:24:57.309Z,6.70
2023-01-05T20:29:59.712Z,6.90
2023-01-05T20:35:02.365Z,7.40
2023-01-05T20:40:05.893Z,6.73
2023-01-05T20:45:08.456Z,7.23
2023-01-05T20:50:10.616Z,7.17
2023-01-05T20:55:13.209Z,6.23
2023-01-05T21:00:16.550Z,7.10
2023-01-05T21:05:18.980Z,6.07
2023-01-05T21:10:21.200Z,8.63
2023-01-05T21:15:24.519Z,7.57
2023-01-05T21:20:27.738Z,6.80
2023-01-05T21:25:29.889Z,6.73
2023-01-05T21:30:52.177Z,6.67
2023-01-05T21:35:55.663Z,5.90
2023-01-05T21:41:08.352Z,5.30
2023-01-05T21:46:12.177Z,5.63
2023-01-05T21:51:32.874Z,6.80
2023-01-05T21:56:39.411Z,7.17
2023-01-05T22:01:41.763Z,7.37
2023-01-05T22:06:44.039Z,7.33
2023-01-05T22:11:47.354Z,6.77
2023-01-05T22:16:49.498Z,7.73
2023-01-05T22:21:51.824Z,7.53
2023-01-05T22:26:55.110Z,8.97
2023-01-05T22:31:58.797Z,9.00
2023-01-05T22:37:02.176Z,8.43
2023-01-05T22:42:04.461Z,9.07
2023-01-05T22:47:06.648Z,8.23
2023-01-05T22:52:08.790Z,8.63
2023-01-05T22:57:11.132Z,6.97
2023-01-05T23:02:13.525Z,5.67
2023-01-05T23:07:20.558Z,7.10
2023-01-05T23:12:22.796Z,8.60
2023-01-05T23:17:25.106Z,11.67
2023-01-05T23:22:27.258Z,10.87
2023-01-05T23:27:29.529Z,12.00
2023-01-05T23:32:32.181Z,12.00
2023-01-05T23:37:34.652Z,11.47
2023-01-05T23:42:43.711Z,9.43
2023-01-05T23:47:46.014Z,8.93
2023-01-05T23:52:48.412Z,7.13
2023-01-05T23:57:50.836Z,6.23
